Ana Sayfa
METAR-TAF:

METAR-TAF

Havaalanları :

Kars, Türkiye

Kars Harakani Havalimanı

Enlem: 40-36N, Boylam: 043-05E, yükseklik: 1775 m

Güncel hava durumu gözlemi

Rapor saat 13:50 UTC de 43 dakika önce yapıldı.
Rüzgar doğu/kuzeydoğudan 3 kt, kuzey/kuzeydoğu ve doğu arasında değişken
Sıcaklık 0°C
Nem 69%
Basınç 1012 hPa
Görüş mesafesi 10 km veya daha fazla
4000 ft yükseklikte az bulutlu

METAR: LTCF 231350Z 06003KT 030V090 9999 FEW040 00/M05 Q1012

Saat: 17:33 (14:33 UTC)

Tahmin

Rapor saat 10:40 UTC de 3 saat ve 53 dakika önce yapıldı.
Ayın 23'si saat 12 UTC'den ayın 23'si saat 21 UTC'ye kadar geçerli Tahmin
Rüzgar değişken yönden 2 kt
Görüş mesafesi 10 km veya daha fazla
1500 m altında bulut yok ve kümülonimbus yok

TAF: LTCF 231040Z 2312/2321 VRB02KT CAVOK

4.000'den fazla havaalanı için hava durumu gözlemleri ve tahminleri (METAR ve TAF raporları).

Kullanılabilir istasyonlar harita üzerinde sarı ve kırmızı noktalarla gösterilir.

İstasyonun adını görmek için fareyi noktanın üzerinde gezdirin.

Sonrasında hava gözlem ve tahminlerini görmek için tıklayın.

Haritayı değiştirmek için: yaklaştırmak için siyah artı işaretli yeşil düğmeye ve uzaklaştırmak için de eksi işaretli düğmeye hızla tıklayın; bitişik haritalar için yeşil okları kullanın.


METAR-TAF: